sensor_id;sensor_type;location;lat;lon;timestamp;pressure;altitude;pressure_sealevel;temperature;humidity
62126;BME280;48112;53.282;6.150;2022-07-18T00:00:54;102497.72;;;22.67;55.38
62126;BME280;48112;53.282;6.150;2022-07-18T00:01:59;102493.78;;;22.64;55.12
62126;BME280;48112;53.282;6.150;2022-07-18T00:03:02;102491.41;;;22.63;54.88
62126;BME280;48112;53.282;6.150;2022-07-18T00:04:06;102491.38;;;22.59;55.29
62126;BME280;48112;53.282;6.150;2022-07-18T00:05:09;102491.72;;;22.54;55.54
62126;BME280;48112;53.282;6.150;2022-07-18T00:06:13;102488.91;;;22.51;55.81
62126;BME280;48112;53.282;6.150;2022-07-18T00:07:16;102488.09;;;22.47;55.19
62126;BME280;48112;53.282;6.150;2022-07-18T00:08:19;102486.50;;;22.46;55.75
62126;BME280;48112;53.282;6.150;2022-07-18T00:09:22;102481.00;;;22.46;55.78
62126;BME280;48112;53.282;6.150;2022-07-18T00:10:25;102486.91;;;22.48;55.84
62126;BME280;48112;53.282;6.150;2022-07-18T00:11:29;102482.59;;;22.47;55.26
62126;BME280;48112;53.282;6.150;2022-07-18T00:12:32;102481.81;;;22.46;55.18
62126;BME280;48112;53.282;6.150;2022-07-18T00:13:35;102480.63;;;22.44;55.21
62126;BME280;48112;53.282;6.150;2022-07-18T00:14:39;102480.97;;;22.42;55.48
62126;BME280;48112;53.282;6.150;2022-07-18T00:15:42;102482.53;;;22.40;55.43
62126;BME280;48112;53.282;6.150;2022-07-18T00:16:45;102488.03;;;22.40;55.59
62126;BME280;48112;53.282;6.150;2022-07-18T00:17:48;102486.84;;;22.37;55.79
62126;BME280;48112;53.282;6.150;2022-07-18T00:18:51;102489.59;;;22.37;55.81
62126;BME280;48112;53.282;6.150;2022-07-18T00:19:54;102483.28;;;22.37;55.72
62126;BME280;48112;53.282;6.150;2022-07-18T00:20:59;102489.56;;;22.34;55.56
62126;BME280;48112;53.282;6.150;2022-07-18T00:22:01;102486.41;;;22.32;55.37
62126;BME280;48112;53.282;6.150;2022-07-18T00:23:05;102490.72;;;22.33;56.11
62126;BME280;48112;53.282;6.150;2022-07-18T00:24:07;102489.50;;;22.27;56.11
62126;BME280;48112;53.282;6.150;2022-07-18T00:25:10;102489.06;;;22.21;56.02
62126;BME280;48112;53.282;6.150;2022-07-18T00:26:13;102491.78;;;22.17;56.57
62126;BME280;48112;53.282;6.150;2022-07-18T00:27:16;102488.22;;;22.17;56.76
62126;BME280;48112;53.282;6.150;2022-07-18T00:28:19;102484.28;;;22.14;56.72
62126;BME280;48112;53.282;6.150;2022-07-18T00:29:22;102494.09;;;22.15;56.36
62126;BME280;48112;53.282;6.150;2022-07-18T00:30:25;102486.63;;;22.12;56.70
62126;BME280;48112;53.282;6.150;2022-07-18T00:31:28;102486.97;;;22.07;57.17
62126;BME280;48112;53.282;6.150;2022-07-18T00:32:31;102485.38;;;22.06;56.80
62126;BME280;48112;53.282;6.150;2022-07-18T00:33:34;102488.56;;;22.08;57.21
62126;BME280;48112;53.282;6.150;2022-07-18T00:34:36;102492.47;;;22.07;57.26
62126;BME280;48112;53.282;6.150;2022-07-18T00:35:40;102479.50;;;22.08;57.35
62126;BME280;48112;53.282;6.150;2022-07-18T00:36:44;102486.19;;;22.10;57.11
62126;BME280;48112;53.282;6.150;2022-07-18T00:37:48;102481.50;;;22.11;56.97
62126;BME280;48112;53.282;6.150;2022-07-18T00:38:50;102476.75;;;22.08;56.85
62126;BME280;48112;53.282;6.150;2022-07-18T00:39:53;102479.03;;;22.02;56.96
62126;BME280;48112;53.282;6.150;2022-07-18T00:40:57;102480.63;;;22.03;57.48
62126;BME280;48112;53.282;6.150;2022-07-18T00:42:00;102479.84;;;22.03;57.04
62126;BME280;48112;53.282;6.150;2022-07-18T00:43:03;102482.59;;;22.03;57.73
62126;BME280;48112;53.282;6.150;2022-07-18T00:44:17;102484.53;;;21.99;57.35
62126;BME280;48112;53.282;6.150;2022-07-18T00:45:20;102474.31;;;21.99;57.08
62126;BME280;48112;53.282;6.150;2022-07-18T00:46:24;102476.66;;;21.97;57.84
62126;BME280;48112;53.282;6.150;2022-07-18T00:47:27;102474.66;;;21.94;57.23
62126;BME280;48112;53.282;6.150;2022-07-18T00:48:30;102463.63;;;21.91;57.47
62126;BME280;48112;53.282;6.150;2022-07-18T00:49:33;102469.47;;;21.86;57.85
62126;BME280;48112;53.282;6.150;2022-07-18T00:50:37;102469.00;;;21.80;57.79
62126;BME280;48112;53.282;6.150;2022-07-18T00:51:39;102469.38;;;21.75;57.87
62126;BME280;48112;53.282;6.150;2022-07-18T00:52:44;102467.31;;;21.72;58.02
62126;BME280;48112;53.282;6.150;2022-07-18T00:53:49;102465.31;;;21.69;58.40
62126;BME280;48112;53.282;6.150;2022-07-18T00:54:52;102470.03;;;21.69;58.45
62126;BME280;48112;53.282;6.150;2022-07-18T00:55:55;102466.50;;;21.68;58.19
62126;BME280;48112;53.282;6.150;2022-07-18T00:56:58;102467.25;;;21.65;58.76
62126;BME280;48112;53.282;6.150;2022-07-18T00:58:01;102462.88;;;21.61;58.40
62126;BME280;48112;53.282;6.150;2022-07-18T00:59:05;102473.84;;;21.57;58.92
62126;BME280;48112;53.282;6.150;2022-07-18T01:00:12;102459.97;;;21.47;59.41
62126;BME280;48112;53.282;6.150;2022-07-18T01:01:34;102462.31;;;21.45;59.21
62126;BME280;48112;53.282;6.150;2022-07-18T01:02:47;102458.69;;;21.37;59.12
62126;BME280;48112;53.282;6.150;2022-07-18T01:03:50;102449.97;;;21.32;59.52
62126;BME280;48112;53.282;6.150;2022-07-18T01:04:53;102458.91;;;21.25;59.48
62126;BME280;48112;53.282;6.150;2022-07-18T01:05:56;102449.44;;;21.19;59.67
62126;BME280;48112;53.282;6.150;2022-07-18T01:07:01;102453.34;;;21.18;60.09
62126;BME280;48112;53.282;6.150;2022-07-18T01:08:06;102458.41;;;21.16;59.97
62126;BME280;48112;53.282;6.150;2022-07-18T01:09:10;102452.91;;;21.16;60.14
62126;BME280;48112;53.282;6.150;2022-07-18T01:10:12;102459.59;;;21.15;59.70
62126;BME280;48112;53.282;6.150;2022-07-18T01:11:16;102461.59;;;21.18;60.12
62126;BME280;48112;53.282;6.150;2022-07-18T01:12:19;102456.47;;;21.17;60.05
62126;BME280;48112;53.282;6.150;2022-07-18T01:13:22;102464.41;;;21.25;60.03
62126;BME280;48112;53.282;6.150;2022-07-18T01:14:25;102474.25;;;21.26;59.74
62126;BME280;48112;53.282;6.150;2022-07-18T01:15:29;102472.31;;;21.30;59.77
62126;BME280;48112;53.282;6.150;2022-07-18T01:16:31;102471.16;;;21.31;59.59
62126;BME280;48112;53.282;6.150;2022-07-18T01:17:35;102475.06;;;21.30;59.48
62126;BME280;48112;53.282;6.150;2022-07-18T01:18:44;102474.31;;;21.33;59.69
62126;BME280;48112;53.282;6.150;2022-07-18T01:19:48;102464.56;;;21.36;59.17
62126;BME280;48112;53.282;6.150;2022-07-18T01:20:52;102464.94;;;21.34;59.16
62126;BME280;48112;53.282;6.150;2022-07-18T01:21:55;102451.53;;;21.33;59.45
62126;BME280;48112;53.282;6.150;2022-07-18T01:22:58;102449.16;;;21.28;59.19
62126;BME280;48112;53.282;6.150;2022-07-18T01:24:02;102447.44;;;21.16;59.51
62126;BME280;48112;53.282;6.150;2022-07-18T01:25:06;102448.50;;;21.08;59.92
62126;BME280;48112;53.282;6.150;2022-07-18T01:26:11;102440.63;;;21.07;59.86
62126;BME280;48112;53.282;6.150;2022-07-18T01:27:15;102440.25;;;21.08;59.52
62126;BME280;48112;53.282;6.150;2022-07-18T01:28:19;102436.34;;;21.09;59.87
62126;BME280;48112;53.282;6.150;2022-07-18T01:29:22;102437.47;;;21.05;59.74
62126;BME280;48112;53.282;6.150;2022-07-18T01:30:26;102443.66;;;20.98;59.56
62126;BME280;48112;53.282;6.150;2022-07-18T01:31:28;102435.31;;;20.91;59.93
62126;BME280;48112;53.282;6.150;2022-07-18T01:32:35;102437.63;;;20.89;59.83
62126;BME280;48112;53.282;6.150;2022-07-18T01:33:38;102444.97;;;20.82;60.07
62126;BME280;48112;53.282;6.150;2022-07-18T01:34:42;102444.13;;;20.77;60.17
62126;BME280;48112;53.282;6.150;2022-07-18T01:35:46;102447.97;;;20.73;59.96
62126;BME280;48112;53.282;6.150;2022-07-18T01:36:51;102449.09;;;20.68;60.04
62126;BME280;48112;53.282;6.150;2022-07-18T01:37:55;102448.28;;;20.68;59.96
62126;BME280;48112;53.282;6.150;2022-07-18T01:38:59;102456.59;;;20.71;60.11
62126;BME280;48112;53.282;6.150;2022-07-18T01:40:06;102454.31;;;20.77;59.80
62126;BME280;48112;53.282;6.150;2022-07-18T01:41:10;102461.06;;;20.83;59.42
62126;BME280;48112;53.282;6.150;2022-07-18T01:42:14;102463.50;;;20.88;59.47
62126;BME280;48112;53.282;6.150;2022-07-18T01:43:16;102452.53;;;20.92;59.17
62126;BME280;48112;53.282;6.150;2022-07-18T01:44:20;102459.72;;;20.96;59.04
62126;BME280;48112;53.282;6.150;2022-07-18T01:45:22;102451.50;;;21.00;58.85
62126;BME280;48112;53.282;6.150;2022-07-18T01:46:26;102453.13;;;21.01;58.53
62126;BME280;48112;53.282;6.150;2022-07-18T01:47:28;102455.06;;;21.00;58.74
62126;BME280;48112;53.282;6.150;2022-07-18T01:48:31;102456.59;;;20.98;58.44
62126;BME280;48112;53.282;6.150;2022-07-18T01:49:34;102456.53;;;20.94;58.53
62126;BME280;48112;53.282;6.150;2022-07-18T01:50:38;102461.13;;;20.87;58.71
62126;BME280;48112;53.282;6.150;2022-07-18T01:51:44;102451.94;;;20.75;58.95
62126;BME280;48112;53.282;6.150;2022-07-18T01:52:49;102448.28;;;20.68;59.25
62126;BME280;48112;53.282;6.150;2022-07-18T01:53:56;102450.97;;;20.64;59.32
62126;BME280;48112;53.282;6.150;2022-07-18T01:55:05;102446.22;;;20.61;59.31
62126;BME280;48112;53.282;6.150;2022-07-18T01:56:10;102443.47;;;20.58;59.17
62126;BME280;48112;53.282;6.150;2022-07-18T01:57:14;102443.47;;;20.58;59.20
62126;BME280;48112;53.282;6.150;2022-07-18T01:58:17;102437.16;;;20.57;59.38
62126;BME280;48112;53.282;6.150;2022-07-18T01:59:20;102440.28;;;20.56;59.39
62126;BME280;48112;53.282;6.150;2022-07-18T02:00:23;102430.03;;;20.53;59.52
62126;BME280;48112;53.282;6.150;2022-07-18T02:01:26;102419.25;;;20.41;59.78
62126;BME280;48112;53.282;6.150;2022-07-18T02:02:29;102430.97;;;20.38;59.79
62126;BME280;48112;53.282;6.150;2022-07-18T02:03:32;102430.06;;;20.30;60.00
62126;BME280;48112;53.282;6.150;2022-07-18T02:04:35;102426.84;;;20.25;60.02
62126;BME280;48112;53.282;6.150;2022-07-18T02:05:56;102435.06;;;20.25;59.91
62126;BME280;48112;53.282;6.150;2022-07-18T02:07:00;102428.81;;;20.24;60.12
62126;BME280;48112;53.282;6.150;2022-07-18T02:08:04;102434.34;;;20.28;59.94
62126;BME280;48112;53.282;6.150;2022-07-18T02:09:08;102436.00;;;20.32;59.75
62126;BME280;48112;53.282;6.150;2022-07-18T02:10:16;102430.13;;;20.34;59.70
62126;BME280;48112;53.282;6.150;2022-07-18T02:11:20;102424.97;;;20.29;59.69
62126;BME280;48112;53.282;6.150;2022-07-18T02:12:22;102426.44;;;20.23;59.84
62126;BME280;48112;53.282;6.150;2022-07-18T02:13:25;102429.47;;;20.18;59.91
62126;BME280;48112;53.282;6.150;2022-07-18T02:14:29;102432.59;;;20.16;60.14
62126;BME280;48112;53.282;6.150;2022-07-18T02:15:32;102424.72;;;20.15;60.00
62126;BME280;48112;53.282;6.150;2022-07-18T02:16:35;102431.00;;;20.15;60.23
62126;BME280;48112;53.282;6.150;2022-07-18T02:17:38;102422.81;;;20.19;59.89
62126;BME280;48112;53.282;6.150;2022-07-18T02:18:42;102419.34;;;20.22;59.76
62126;BME280;48112;53.282;6.150;2022-07-18T02:19:44;102411.56;;;20.24;59.92
62126;BME280;48112;53.282;6.150;2022-07-18T02:20:48;102417.03;;;20.24;59.65
62126;BME280;48112;53.282;6.150;2022-07-18T02:21:51;102409.53;;;20.21;59.82
62126;BME280;48112;53.282;6.150;2022-07-18T02:22:53;102418.59;;;20.25;59.47
62126;BME280;48112;53.282;6.150;2022-07-18T02:23:58;102412.28;;;20.21;59.31
62126;BME280;48112;53.282;6.150;2022-07-18T02:25:01;102415.34;;;20.16;59.57
62126;BME280;48112;53.282;6.150;2022-07-18T02:26:05;102416.41;;;20.11;59.61
62126;BME280;48112;53.282;6.150;2022-07-18T02:27:09;102412.84;;;20.07;59.70
62126;BME280;48112;53.282;6.150;2022-07-18T02:28:12;102412.84;;;20.07;59.63
62126;BME280;48112;53.282;6.150;2022-07-18T02:29:15;102415.59;;;20.11;59.63
62126;BME280;48112;53.282;6.150;2022-07-18T02:30:18;102417.66;;;20.14;59.46
62126;BME280;48112;53.282;6.150;2022-07-18T02:31:21;102432.97;;;20.15;59.22
62126;BME280;48112;53.282;6.150;2022-07-18T02:32:25;102422.31;;;20.13;59.23
62126;BME280;48112;53.282;6.150;2022-07-18T02:33:29;102419.53;;;20.10;59.25
62126;BME280;48112;53.282;6.150;2022-07-18T02:34:31;102422.19;;;20.06;59.23
62126;BME280;48112;53.282;6.150;2022-07-18T02:35:35;102426.09;;;20.05;59.19
62126;BME280;48112;53.282;6.150;2022-07-18T02:36:40;102419.81;;;20.05;59.11
62126;BME280;48112;53.282;6.150;2022-07-18T02:37:43;102427.69;;;20.06;59.10
62126;BME280;48112;53.282;6.150;2022-07-18T02:38:46;102429.22;;;20.04;59.24
62126;BME280;48112;53.282;6.150;2022-07-18T02:39:50;102422.13;;;20.03;59.05
62126;BME280;48112;53.282;6.150;2022-07-18T02:40:53;102423.28;;;20.02;59.18
62126;BME280;48112;53.282;6.150;2022-07-18T02:41:56;102428.78;;;20.02;59.03
62126;BME280;48112;53.282;6.150;2022-07-18T02:42:59;102430.72;;;20.01;59.07
62126;BME280;48112;53.282;6.150;2022-07-18T02:44:03;102422.09;;;19.99;59.15
62126;BME280;48112;53.282;6.150;2022-07-18T02:45:08;102427.94;;;19.98;59.14
62126;BME280;48112;53.282;6.150;2022-07-18T02:46:10;102419.34;;;19.99;59.07
62126;BME280;48112;53.282;6.150;2022-07-18T02:47:14;102422.50;;;20.01;59.22
62126;BME280;48112;53.282;6.150;2022-07-18T02:48:16;102418.13;;;19.97;59.28
62126;BME280;48112;53.282;6.150;2022-07-18T02:49:19;102420.44;;;19.95;59.05
62126;BME280;48112;53.282;6.150;2022-07-18T02:50:31;102416.41;;;19.89;59.16
62126;BME280;48112;53.282;6.150;2022-07-18T02:51:34;102418.75;;;19.87;59.53
62126;BME280;48112;53.282;6.150;2022-07-18T02:52:38;102421.47;;;19.87;59.39
62126;BME280;48112;53.282;6.150;2022-07-18T02:53:42;102423.50;;;19.90;59.07
62126;BME280;48112;53.282;6.150;2022-07-18T02:54:45;102414.09;;;19.91;59.11
62126;BME280;48112;53.282;6.150;2022-07-18T02:55:50;102425.88;;;19.91;59.15
62126;BME280;48112;53.282;6.150;2022-07-18T02:56:52;102427.06;;;19.94;58.86
62126;BME280;48112;53.282;6.150;2022-07-18T02:57:56;102429.81;;;19.94;58.76
62126;BME280;48112;53.282;6.150;2022-07-18T02:58:58;102426.63;;;19.92;58.78
62126;BME280;48112;53.282;6.150;2022-07-18T03:00:02;102425.06;;;19.91;58.78
62126;BME280;48112;53.282;6.150;2022-07-18T03:01:06;102426.63;;;19.92;58.79
62126;BME280;48112;53.282;6.150;2022-07-18T03:02:09;102418.41;;;19.92;58.73
62126;BME280;48112;53.282;6.150;2022-07-18T03:03:12;102412.09;;;19.88;58.74
62126;BME280;48112;53.282;6.150;2022-07-18T03:04:15;102409.22;;;19.81;58.88
62126;BME280;48112;53.282;6.150;2022-07-18T03:05:18;102406.72;;;19.72;59.19
62126;BME280;48112;53.282;6.150;2022-07-18T03:06:22;102392.81;;;19.62;59.58
62126;BME280;48112;53.282;6.150;2022-07-18T03:07:25;102393.13;;;19.57;59.84
62126;BME280;48112;53.282;6.150;2022-07-18T03:08:28;102384.41;;;19.51;60.02
62126;BME280;48112;53.282;6.150;2022-07-18T03:09:30;102379.59;;;19.45;59.93
62126;BME280;48112;53.282;6.150;2022-07-18T03:10:34;102379.59;;;19.45;60.09
62126;BME280;48112;53.282;6.150;2022-07-18T03:11:38;102375.28;;;19.44;60.04
62126;BME280;48112;53.282;6.150;2022-07-18T03:12:41;102361.59;;;19.44;59.94
62126;BME280;48112;53.282;6.150;2022-07-18T03:13:45;102365.03;;;19.41;59.98
62126;BME280;48112;53.282;6.150;2022-07-18T03:14:47;102367.34;;;19.39;59.80
62126;BME280;48112;53.282;6.150;2022-07-18T03:15:51;102365.34;;;19.36;59.62
62126;BME280;48112;53.282;6.150;2022-07-18T03:16:53;102340.69;;;19.16;59.64
62126;BME280;48112;53.282;6.150;2022-07-18T03:17:57;102370.81;;;19.36;59.35
62126;BME280;48112;53.282;6.150;2022-07-18T03:18:59;102377.88;;;19.37;59.48
62126;BME280;48112;53.282;6.150;2022-07-18T03:20:04;102378.66;;;19.37;59.38
62126;BME280;48112;53.282;6.150;2022-07-18T03:21:06;102379.47;;;19.38;59.17
62126;BME280;48112;53.282;6.150;2022-07-18T03:22:10;102378.59;;;19.33;59.14
62126;BME280;48112;53.282;6.150;2022-07-18T03:23:13;102380.13;;;19.31;59.30
62126;BME280;48112;53.282;6.150;2022-07-18T03:24:15;102378.72;;;19.21;59.50
62126;BME280;48112;53.282;6.150;2022-07-18T03:25:19;102373.97;;;19.18;59.53
62126;BME280;48112;53.282;6.150;2022-07-18T03:26:21;102377.09;;;19.17;59.55
62126;BME280;48112;53.282;6.150;2022-07-18T03:27:26;102375.41;;;19.12;59.67
62126;BME280;48112;53.282;6.150;2022-07-18T03:28:28;102383.63;;;19.12;59.91
62126;BME280;48112;53.282;6.150;2022-07-18T03:29:32;102384.34;;;19.09;59.86
62126;BME280;48112;53.282;6.150;2022-07-18T03:30:34;102379.59;;;19.06;60.00
62126;BME280;48112;53.282;6.150;2022-07-18T03:31:38;102379.16;;;19.04;60.16
62126;BME280;48112;53.282;6.150;2022-07-18T03:32:40;102372.47;;;19.02;59.94
62126;BME280;48112;53.282;6.150;2022-07-18T03:33:44;102379.88;;;19.01;59.99
62126;BME280;48112;53.282;6.150;2022-07-18T03:34:46;102373.63;;;19.01;59.97
62126;BME280;48112;53.282;6.150;2022-07-18T03:35:50;102382.59;;;19.01;60.04
62126;BME280;48112;53.282;6.150;2022-07-18T03:36:52;102382.56;;;18.98;60.08
62126;BME280;48112;53.282;6.150;2022-07-18T03:37:56;102383.25;;;18.95;60.13
62126;BME280;48112;53.282;6.150;2022-07-18T03:38:58;102380.47;;;18.91;60.30
62126;BME280;48112;53.282;6.150;2022-07-18T03:40:01;102381.59;;;18.90;60.35
62126;BME280;48112;53.282;6.150;2022-07-18T03:41:05;102378.44;;;18.88;60.13
62126;BME280;48112;53.282;6.150;2022-07-18T03:42:08;102374.91;;;18.88;60.21
62126;BME280;48112;53.282;6.150;2022-07-18T03:43:12;102369.78;;;18.86;60.18
62126;BME280;48112;53.282;6.150;2022-07-18T03:44:15;102372.16;;;18.88;60.32
62126;BME280;48112;53.282;6.150;2022-07-18T03:45:18;102358.41;;;18.84;60.24
62126;BME280;48112;53.282;6.150;2022-07-18T03:46:21;102372.00;;;18.81;60.44
62126;BME280;48112;53.282;6.150;2022-07-18T03:47:24;102371.25;;;18.80;60.55
62126;BME280;48112;53.282;6.150;2022-07-18T03:48:27;102372.81;;;18.81;60.33
62126;BME280;48112;53.282;6.150;2022-07-18T03:49:29;102366.97;;;18.83;60.26
62126;BME280;48112;53.282;6.150;2022-07-18T03:50:33;102367.78;;;18.83;60.37
62126;BME280;48112;53.282;6.150;2022-07-18T03:51:35;102377.13;;;18.82;60.13
62126;BME280;48112;53.282;6.150;2022-07-18T03:52:39;102372.81;;;18.81;60.35
62126;BME280;48112;53.282;6.150;2022-07-18T03:53:42;102371.59;;;18.79;60.07
62126;BME280;48112;53.282;6.150;2022-07-18T03:54:45;102365.69;;;18.77;60.45
62126;BME280;48112;53.282;6.150;2022-07-18T03:55:47;102358.56;;;18.72;60.38
62126;BME280;48112;53.282;6.150;2022-07-18T03:56:51;102356.91;;;18.68;60.59
62126;BME280;48112;53.282;6.150;2022-07-18T03:57:53;102355.22;;;18.63;60.29
62126;BME280;48112;53.282;6.150;2022-07-18T03:58:58;102350.09;;;18.62;60.39
62126;BME280;48112;53.282;6.150;2022-07-18T04:00:00;102354.34;;;18.59;60.56
62126;BME280;48112;53.282;6.150;2022-07-18T04:01:13;102355.84;;;18.57;60.52
62126;BME280;48112;53.282;6.150;2022-07-18T04:02:15;102353.47;;;18.55;60.70
62126;BME280;48112;53.282;6.150;2022-07-18T04:03:18;102348.00;;;18.55;60.65
62126;BME280;48112;53.282;6.150;2022-07-18T04:04:22;102344.50;;;18.55;60.51
62126;BME280;48112;53.282;6.150;2022-07-18T04:05:25;102350.72;;;18.55;60.62
62126;BME280;48112;53.282;6.150;2022-07-18T04:06:27;102344.13;;;18.56;60.38
62126;BME280;48112;53.282;6.150;2022-07-18T04:07:31;102350.38;;;18.57;60.52
62126;BME280;48112;53.282;6.150;2022-07-18T04:08:33;102351.97;;;18.58;60.44
62126;BME280;48112;53.282;6.150;2022-07-18T04:09:37;102346.50;;;18.58;60.37
62126;BME280;48112;53.282;6.150;2022-07-18T04:10:39;102345.34;;;18.59;60.23
62126;BME280;48112;53.282;6.150;2022-07-18T04:11:43;102337.94;;;18.59;60.38
62126;BME280;48112;53.282;6.150;2022-07-18T04:12:46;102343.41;;;18.59;60.36
62126;BME280;48112;53.282;6.150;2022-07-18T04:13:50;102351.25;;;18.61;60.19
62126;BME280;48112;53.282;6.150;2022-07-18T04:14:54;102346.59;;;18.61;60.08
62126;BME280;48112;53.282;6.150;2022-07-18T04:15:57;102353.19;;;18.60;60.31
62126;BME280;48112;53.282;6.150;2022-07-18T04:17:01;102346.50;;;18.58;60.39
62126;BME280;48112;53.282;6.150;2022-07-18T04:18:05;102343.31;;;18.56;60.17
62126;BME280;48112;53.282;6.150;2022-07-18T04:19:09;102349.59;;;18.56;60.18
62126;BME280;48112;53.282;6.150;2022-07-18T04:20:13;102351.53;;;18.56;60.27
62126;BME280;48112;53.282;6.150;2022-07-18T04:21:16;102349.59;;;18.56;60.07
62126;BME280;48112;53.282;6.150;2022-07-18T04:22:19;102349.88;;;18.51;60.29
62126;BME280;48112;53.282;6.150;2022-07-18T04:23:22;102354.28;;;18.56;60.42
62126;BME280;48112;53.282;6.150;2022-07-18T04:24:24;102353.91;;;18.57;60.30
62126;BME280;48112;53.282;6.150;2022-07-18T04:25:33;102361.75;;;18.59;59.83
62126;BME280;48112;53.282;6.150;2022-07-18T04:26:36;102355.94;;;18.60;60.12
62126;BME280;48112;53.282;6.150;2022-07-18T04:27:39;102362.19;;;18.61;59.83
62126;BME280;48112;53.282;6.150;2022-07-18T04:28:42;102359.09;;;18.62;60.02
62126;BME280;48112;53.282;6.150;2022-07-18T04:29:45;102356.81;;;18.64;59.94
62126;BME280;48112;53.282;6.150;2022-07-18T04:30:49;102347.44;;;18.65;59.95
62126;BME280;48112;53.282;6.150;2022-07-18T04:31:56;102354.50;;;18.66;59.78
62126;BME280;48112;53.282;6.150;2022-07-18T04:33:01;102361.56;;;18.67;59.95
62126;BME280;48112;53.282;6.150;2022-07-18T04:34:05;102362.38;;;18.68;59.88
62126;BME280;48112;53.282;6.150;2022-07-18T04:35:09;102351.44;;;18.68;59.68
62126;BME280;48112;53.282;6.150;2022-07-18T04:36:13;102359.28;;;18.69;59.80
62126;BME280;48112;53.282;6.150;2022-07-18T04:37:15;102353.00;;;18.69;59.54
62126;BME280;48112;53.282;6.150;2022-07-18T04:38:19;102357.66;;;18.68;59.65
62126;BME280;48112;53.282;6.150;2022-07-18T04:39:22;102367.47;;;18.69;59.79
62126;BME280;48112;53.282;6.150;2022-07-18T04:40:24;102355.72;;;18.69;59.57
62126;BME280;48112;53.282;6.150;2022-07-18T04:41:28;102355.38;;;18.70;59.85
62126;BME280;48112;53.282;6.150;2022-07-18T04:42:37;102354.66;;;18.73;59.58
62126;BME280;48112;53.282;6.150;2022-07-18T04:43:41;102358.28;;;18.77;59.27
62126;BME280;48112;53.282;6.150;2022-07-18T04:44:43;102350.13;;;18.81;59.61
62126;BME280;48112;53.282;6.150;2022-07-18T04:45:46;102343.78;;;18.77;59.44
62126;BME280;48112;53.282;6.150;2022-07-18T04:46:50;102347.75;;;18.79;59.47
62126;BME280;48112;53.282;6.150;2022-07-18T04:47:54;102355.22;;;18.82;59.36
62126;BME280;48112;53.282;6.150;2022-07-18T04:48:57;102339.25;;;18.84;59.38
62126;BME280;48112;53.282;6.150;2022-07-18T04:50:00;102334.28;;;18.90;59.44
62126;BME280;48112;53.282;6.150;2022-07-18T04:51:03;102343.72;;;18.92;59.26
62126;BME280;48112;53.282;6.150;2022-07-18T04:52:06;102337.88;;;18.94;59.45
62126;BME280;48112;53.282;6.150;2022-07-18T04:53:09;102338.75;;;18.98;59.17
62126;BME280;48112;53.282;6.150;2022-07-18T04:54:12;102336.06;;;19.01;58.88
62126;BME280;48112;53.282;6.150;2022-07-18T04:55:18;102329.38;;;18.99;58.89
62126;BME280;48112;53.282;6.150;2022-07-18T04:56:22;102334.50;;;19.00;59.05
62126;BME280;48112;53.282;6.150;2022-07-18T04:57:25;102328.16;;;18.96;59.11
62126;BME280;48112;53.282;6.150;2022-07-18T04:58:28;102327.00;;;18.97;59.45
62126;BME280;48112;53.282;6.150;2022-07-18T04:59:32;102331.75;;;19.00;59.12
62126;BME280;48112;53.282;6.150;2022-07-18T05:00:38;102338.09;;;19.04;59.00
62126;BME280;48112;53.282;6.150;2022-07-18T05:01:42;102335.78;;;19.06;58.81
62126;BME280;48112;53.282;6.150;2022-07-18T05:02:49;102335.78;;;19.06;58.50
62126;BME280;48112;53.282;6.150;2022-07-18T05:03:52;102330.31;;;19.06;58.47
62126;BME280;48112;53.282;6.150;2022-07-18T05:04:55;102340.13;;;19.07;58.82
62126;BME280;48112;53.282;6.150;2022-07-18T05:05:58;102331.09;;;19.07;58.47
62126;BME280;48112;53.282;6.150;2022-07-18T05:07:02;102332.69;;;19.08;58.57
62126;BME280;48112;53.282;6.150;2022-07-18T05:08:05;102335.84;;;19.10;58.45
62126;BME280;48112;53.282;6.150;2022-07-18T05:09:08;102334.69;;;19.11;58.41
62126;BME280;48112;53.282;6.150;2022-07-18T05:10:13;102335.50;;;19.11;58.16
62126;BME280;48112;53.282;6.150;2022-07-18T05:11:17;102328.09;;;19.12;58.21
62126;BME280;48112;53.282;6.150;2022-07-18T05:12:19;102332.75;;;19.11;58.23
62126;BME280;48112;53.282;6.150;2022-07-18T05:13:25;102321.00;;;19.11;58.23
62126;BME280;48112;53.282;6.150;2022-07-18T05:14:28;102321.81;;;19.11;58.24
62126;BME280;48112;53.282;6.150;2022-07-18T05:15:31;102322.59;;;19.12;58.02
62126;BME280;48112;53.282;6.150;2022-07-18T05:16:34;102326.13;;;19.12;58.03
62126;BME280;48112;53.282;6.150;2022-07-18T05:17:39;102315.53;;;19.11;58.12
62126;BME280;48112;53.282;6.150;2022-07-18T05:18:43;102317.13;;;19.12;58.19
62126;BME280;48112;53.282;6.150;2022-07-18T05:19:46;102315.16;;;19.12;58.25
62126;BME280;48112;53.282;6.150;2022-07-18T05:20:48;102310.84;;;19.11;58.39
62126;BME280;48112;53.282;6.150;2022-07-18T05:21:52;102314.03;;;19.13;58.34
62126;BME280;48112;53.282;6.150;2022-07-18T05:22:54;102309.31;;;19.14;58.25
62126;BME280;48112;53.282;6.150;2022-07-18T05:23:58;102307.81;;;19.16;58.26
62126;BME280;48112;53.282;6.150;2022-07-18T05:25:00;102305.53;;;19.18;58.16
62126;BME280;48112;53.282;6.150;2022-07-18T05:26:04;102299.72;;;19.23;58.17
62126;BME280;48112;53.282;6.150;2022-07-18T05:27:07;102306.00;;;19.24;57.93
62126;BME280;48112;53.282;6.150;2022-07-18T05:28:10;102306.00;;;19.24;57.86
62126;BME280;48112;53.282;6.150;2022-07-18T05:29:14;102304.84;;;19.25;57.54
62126;BME280;48112;53.282;6.150;2022-07-18T05:30:18;102305.63;;;19.25;57.62
62126;BME280;48112;53.282;6.150;2022-07-18T05:31:21;102298.22;;;19.26;57.68
62126;BME280;48112;53.282;6.150;2022-07-18T05:32:25;102314.28;;;19.27;57.41
62126;BME280;48112;53.282;6.150;2022-07-18T05:33:27;102304.94;;;19.28;57.31